KFYM/FYM METAR and TAF weather

Enter ICAO airport designator
Station Type Date Time Source
KFYM METAR 2021/10/19 22:50 UTC NOAA

KFYM 192250Z AUTO 18004KT 10SM CLR 19/10 A3019 RMK A01


Station Type Date Time Source
KFYM Decoded METAR 2021/10/19 22:50 UTC NOAA

Station name not available
Oct 19, 2021 - 06:50 PM EDT / 2021.10.19 2250 UTC
Wind: from the S (180 degrees) at 5 MPH (4 KT):0
Visibility: 10 mile(s):0
Sky conditions: clear
Temperature: 66 F (19 C)
Dew Point: 50 F (10 C)
Relative Humidity: 55%
Pressure (altimeter): 30.19 in. Hg (1022 hPa)
ob: KFYM 192250Z AUTO 18004KT 10SM CLR 19/10 A3019 RMK A01
cycle: 23

Station Type Date Time Source
KFYM TAF 2009/08/31 19:45 UTC NOAA

METAR KFYM 311945Z AUTO 01006KT 10SM CLR 26/11 A3009
RMK AO1 T02550111 $

Example: see airport list